Terminal Aerodrome Forecast
Issued by NWS Charleston, WV

Current Version | Previous Version | Text Only | Print | Product List | Glossary Off
Versions: 1 2 3 4 5 6 7 8 9 10 11 12 13 14 15 16 17 18 19 20 21 22 23 24 25 26 27 28

000
FTUS41 KRLX 291400 AAA
TAFPKB
TAF AMD
KPKB 291443Z 2915/3012 18009G18KT P6SM -RA BKN060
     FM291700 18010G18KT P6SM BKN050
     FM292200 27012G22KT P6SM OVC022
     FM300000 28012G22KT P6SM -RA OVC015
     FM300500 28012G22KT 5SM -SN OVC013=

USA.gov is the U.S. government's official web portal to all federal, state and local government web resources and services.